sensor_id;sensor_type;location;lat;lon;timestamp;P1;durP1;ratioP1;P2;durP2;ratioP2
43118;SDS011;28729;49.838;8.650;2024-03-22T00:03:08;19.70;;;9.80;;
43118;SDS011;28729;49.838;8.650;2024-03-22T00:07:12;27.88;;;13.43;;
43118;SDS011;28729;49.838;8.650;2024-03-22T00:11:14;21.17;;;10.77;;
43118;SDS011;28729;49.838;8.650;2024-03-22T00:15:15;21.77;;;10.85;;
43118;SDS011;28729;49.838;8.650;2024-03-22T00:19:20;19.88;;;9.68;;
43118;SDS011;28729;49.838;8.650;2024-03-22T00:23:25;22.20;;;9.75;;
43118;SDS011;28729;49.838;8.650;2024-03-22T00:27:32;21.17;;;10.02;;
43118;SDS011;28729;49.838;8.650;2024-03-22T00:31:47;22.67;;;10.35;;
43118;SDS011;28729;49.838;8.650;2024-03-22T00:35:51;20.27;;;9.38;;
43118;SDS011;28729;49.838;8.650;2024-03-22T00:39:58;22.40;;;10.52;;
43118;SDS011;28729;49.838;8.650;2024-03-22T00:44:00;20.90;;;9.57;;
43118;SDS011;28729;49.838;8.650;2024-03-22T00:48:02;21.58;;;10.57;;
43118;SDS011;28729;49.838;8.650;2024-03-22T00:52:06;20.63;;;9.98;;
43118;SDS011;28729;49.838;8.650;2024-03-22T00:56:25;20.95;;;9.38;;
43118;SDS011;28729;49.838;8.650;2024-03-22T01:00:35;20.15;;;10.32;;
43118;SDS011;28729;49.838;8.650;2024-03-22T01:04:44;21.13;;;9.98;;
43118;SDS011;28729;49.838;8.650;2024-03-22T01:08:48;17.90;;;8.85;;
43118;SDS011;28729;49.838;8.650;2024-03-22T01:13:00;21.55;;;9.30;;
43118;SDS011;28729;49.838;8.650;2024-03-22T01:17:06;20.63;;;9.43;;
43118;SDS011;28729;49.838;8.650;2024-03-22T01:21:15;23.55;;;10.10;;
43118;SDS011;28729;49.838;8.650;2024-03-22T01:25:17;21.98;;;9.57;;
43118;SDS011;28729;49.838;8.650;2024-03-22T01:29:33;19.55;;;9.32;;
43118;SDS011;28729;49.838;8.650;2024-03-22T01:33:34;19.65;;;11.15;;
43118;SDS011;28729;49.838;8.650;2024-03-22T01:37:40;23.50;;;10.00;;
43118;SDS011;28729;49.838;8.650;2024-03-22T01:41:43;19.88;;;10.73;;
43118;SDS011;28729;49.838;8.650;2024-03-22T01:49:47;23.73;;;10.45;;
43118;SDS011;28729;49.838;8.650;2024-03-22T01:53:58;23.08;;;10.40;;
43118;SDS011;28729;49.838;8.650;2024-03-22T01:58:02;25.02;;;11.25;;
43118;SDS011;28729;49.838;8.650;2024-03-22T02:02:04;22.00;;;10.85;;
43118;SDS011;28729;49.838;8.650;2024-03-22T02:06:07;17.30;;;7.30;;
43118;SDS011;28729;49.838;8.650;2024-03-22T02:10:14;20.13;;;10.00;;
43118;SDS011;28729;49.838;8.650;2024-03-22T02:14:18;20.25;;;10.23;;
43118;SDS011;28729;49.838;8.650;2024-03-22T02:18:22;18.63;;;9.63;;
43118;SDS011;28729;49.838;8.650;2024-03-22T02:22:28;22.90;;;10.50;;
43118;SDS011;28729;49.838;8.650;2024-03-22T02:31:47;21.00;;;10.20;;
43118;SDS011;28729;49.838;8.650;2024-03-22T02:35:49;21.50;;;10.82;;
43118;SDS011;28729;49.838;8.650;2024-03-22T02:39:55;25.35;;;9.82;;
43118;SDS011;28729;49.838;8.650;2024-03-22T02:43:59;27.10;;;10.65;;
43118;SDS011;28729;49.838;8.650;2024-03-22T02:48:05;23.42;;;10.48;;
43118;SDS011;28729;49.838;8.650;2024-03-22T02:52:12;24.92;;;11.60;;
43118;SDS011;28729;49.838;8.650;2024-03-22T02:56:21;19.73;;;9.85;;
43118;SDS011;28729;49.838;8.650;2024-03-22T03:00:26;21.88;;;10.52;;
43118;SDS011;28729;49.838;8.650;2024-03-22T03:04:35;24.33;;;11.27;;
43118;SDS011;28729;49.838;8.650;2024-03-22T03:08:44;28.30;;;10.67;;
43118;SDS011;28729;49.838;8.650;2024-03-22T03:12:50;25.10;;;10.20;;
43118;SDS011;28729;49.838;8.650;2024-03-22T03:17:15;23.60;;;11.13;;
43118;SDS011;28729;49.838;8.650;2024-03-22T03:21:19;22.77;;;10.60;;
43118;SDS011;28729;49.838;8.650;2024-03-22T03:25:20;25.23;;;11.45;;
43118;SDS011;28729;49.838;8.650;2024-03-22T03:29:30;25.70;;;11.88;;
43118;SDS011;28729;49.838;8.650;2024-03-22T03:33:34;26.70;;;12.18;;
43118;SDS011;28729;49.838;8.650;2024-03-22T03:37:41;21.65;;;11.55;;
43118;SDS011;28729;49.838;8.650;2024-03-22T03:41:45;25.60;;;12.02;;
43118;SDS011;28729;49.838;8.650;2024-03-22T03:45:58;26.30;;;10.63;;
43118;SDS011;28729;49.838;8.650;2024-03-22T03:50:03;26.60;;;11.43;;
43118;SDS011;28729;49.838;8.650;2024-03-22T03:54:07;27.48;;;11.48;;
43118;SDS011;28729;49.838;8.650;2024-03-22T03:58:10;29.35;;;11.80;;
43118;SDS011;28729;49.838;8.650;2024-03-22T04:02:14;22.83;;;11.48;;
43118;SDS011;28729;49.838;8.650;2024-03-22T04:11:00;30.55;;;12.00;;
43118;SDS011;28729;49.838;8.650;2024-03-22T04:15:14;22.13;;;11.07;;
43118;SDS011;28729;49.838;8.650;2024-03-22T04:19:18;25.77;;;11.45;;
43118;SDS011;28729;49.838;8.650;2024-03-22T04:23:28;24.65;;;11.68;;
43118;SDS011;28729;49.838;8.650;2024-03-22T04:27:32;30.85;;;11.90;;
43118;SDS011;28729;49.838;8.650;2024-03-22T04:31:42;27.23;;;12.40;;
43118;SDS011;28729;49.838;8.650;2024-03-22T04:35:54;24.40;;;10.93;;
43118;SDS011;28729;49.838;8.650;2024-03-22T04:40:04;24.45;;;11.45;;
43118;SDS011;28729;49.838;8.650;2024-03-22T04:44:28;23.98;;;10.85;;
43118;SDS011;28729;49.838;8.650;2024-03-22T04:48:37;23.70;;;10.63;;
43118;SDS011;28729;49.838;8.650;2024-03-22T04:52:38;20.55;;;9.25;;
43118;SDS011;28729;49.838;8.650;2024-03-22T04:56:42;22.52;;;10.63;;
43118;SDS011;28729;49.838;8.650;2024-03-22T05:05:16;20.35;;;9.73;;
43118;SDS011;28729;49.838;8.650;2024-03-22T05:09:17;24.20;;;10.05;;
43118;SDS011;28729;49.838;8.650;2024-03-22T05:13:19;22.17;;;10.95;;
43118;SDS011;28729;49.838;8.650;2024-03-22T05:17:23;23.65;;;9.88;;
43118;SDS011;28729;49.838;8.650;2024-03-22T05:21:27;20.77;;;10.05;;
43118;SDS011;28729;49.838;8.650;2024-03-22T05:25:28;21.05;;;10.65;;
43118;SDS011;28729;49.838;8.650;2024-03-22T05:29:37;20.77;;;9.55;;
43118;SDS011;28729;49.838;8.650;2024-03-22T05:33:38;20.40;;;9.25;;
43118;SDS011;28729;49.838;8.650;2024-03-22T05:37:41;22.92;;;10.05;;
43118;SDS011;28729;49.838;8.650;2024-03-22T05:41:58;19.77;;;9.10;;
43118;SDS011;28729;49.838;8.650;2024-03-22T05:46:02;19.17;;;10.52;;
43118;SDS011;28729;49.838;8.650;2024-03-22T05:50:03;21.38;;;9.77;;
43118;SDS011;28729;49.838;8.650;2024-03-22T05:54:16;26.42;;;11.10;;
43118;SDS011;28729;49.838;8.650;2024-03-22T05:58:19;22.42;;;10.75;;
43118;SDS011;28729;49.838;8.650;2024-03-22T06:02:28;22.27;;;11.15;;
43118;SDS011;28729;49.838;8.650;2024-03-22T06:06:29;23.35;;;10.88;;
43118;SDS011;28729;49.838;8.650;2024-03-22T06:10:30;27.80;;;12.00;;
43118;SDS011;28729;49.838;8.650;2024-03-22T06:14:37;25.67;;;11.95;;
43118;SDS011;28729;49.838;8.650;2024-03-22T06:18:39;21.77;;;11.32;;
43118;SDS011;28729;49.838;8.650;2024-03-22T06:22:45;24.98;;;11.30;;
43118;SDS011;28729;49.838;8.650;2024-03-22T06:26:49;21.50;;;10.80;;
43118;SDS011;28729;49.838;8.650;2024-03-22T06:31:06;20.65;;;11.23;;
43118;SDS011;28729;49.838;8.650;2024-03-22T06:35:15;23.10;;;10.95;;
43118;SDS011;28729;49.838;8.650;2024-03-22T06:39:19;21.85;;;10.30;;
43118;SDS011;28729;49.838;8.650;2024-03-22T06:43:21;28.37;;;11.53;;
43118;SDS011;28729;49.838;8.650;2024-03-22T06:47:22;20.25;;;10.63;;
43118;SDS011;28729;49.838;8.650;2024-03-22T06:51:26;19.13;;;10.65;;
43118;SDS011;28729;49.838;8.650;2024-03-22T06:55:30;19.90;;;11.23;;
43118;SDS011;28729;49.838;8.650;2024-03-22T06:59:38;17.48;;;9.68;;
43118;SDS011;28729;49.838;8.650;2024-03-22T07:03:42;23.65;;;10.93;;
43118;SDS011;28729;49.838;8.650;2024-03-22T07:07:53;20.05;;;10.05;;
43118;SDS011;28729;49.838;8.650;2024-03-22T07:11:56;21.15;;;10.13;;
43118;SDS011;28729;49.838;8.650;2024-03-22T07:16:01;22.05;;;9.00;;
43118;SDS011;28729;49.838;8.650;2024-03-22T07:20:09;18.63;;;9.75;;
43118;SDS011;28729;49.838;8.650;2024-03-22T07:24:20;17.17;;;8.77;;
43118;SDS011;28729;49.838;8.650;2024-03-22T07:28:28;15.77;;;8.85;;
43118;SDS011;28729;49.838;8.650;2024-03-22T07:32:30;14.23;;;8.52;;
43118;SDS011;28729;49.838;8.650;2024-03-22T07:36:42;16.45;;;9.43;;
43118;SDS011;28729;49.838;8.650;2024-03-22T07:40:50;15.13;;;8.77;;
43118;SDS011;28729;49.838;8.650;2024-03-22T07:44:51;17.92;;;9.23;;
43118;SDS011;28729;49.838;8.650;2024-03-22T07:48:57;15.32;;;8.80;;
43118;SDS011;28729;49.838;8.650;2024-03-22T07:53:00;20.85;;;10.02;;
43118;SDS011;28729;49.838;8.650;2024-03-22T07:57:10;17.58;;;8.93;;
43118;SDS011;28729;49.838;8.650;2024-03-22T08:01:14;13.07;;;7.45;;
43118;SDS011;28729;49.838;8.650;2024-03-22T08:05:16;14.05;;;8.48;;
43118;SDS011;28729;49.838;8.650;2024-03-22T08:09:24;15.00;;;8.27;;
43118;SDS011;28729;49.838;8.650;2024-03-22T08:13:28;13.77;;;7.25;;
43118;SDS011;28729;49.838;8.650;2024-03-22T08:17:30;11.95;;;6.97;;
43118;SDS011;28729;49.838;8.650;2024-03-22T08:21:32;14.10;;;7.60;;
43118;SDS011;28729;49.838;8.650;2024-03-22T08:25:36;11.27;;;6.60;;
43118;SDS011;28729;49.838;8.650;2024-03-22T08:29:40;12.65;;;7.10;;
43118;SDS011;28729;49.838;8.650;2024-03-22T08:33:41;11.00;;;5.88;;
43118;SDS011;28729;49.838;8.650;2024-03-22T08:37:43;11.23;;;7.00;;
43118;SDS011;28729;49.838;8.650;2024-03-22T08:41:45;11.93;;;6.78;;
43118;SDS011;28729;49.838;8.650;2024-03-22T08:45:51;12.00;;;6.47;;
43118;SDS011;28729;49.838;8.650;2024-03-22T08:49:53;10.87;;;5.70;;
43118;SDS011;28729;49.838;8.650;2024-03-22T08:53:54;10.77;;;6.97;;
43118;SDS011;28729;49.838;8.650;2024-03-22T08:57:56;12.25;;;6.30;;
43118;SDS011;28729;49.838;8.650;2024-03-22T09:02:00;13.43;;;6.32;;
43118;SDS011;28729;49.838;8.650;2024-03-22T09:06:05;11.68;;;6.32;;
43118;SDS011;28729;49.838;8.650;2024-03-22T09:10:07;12.30;;;6.20;;
43118;SDS011;28729;49.838;8.650;2024-03-22T09:14:08;12.73;;;7.38;;
43118;SDS011;28729;49.838;8.650;2024-03-22T09:18:10;13.05;;;6.88;;
43118;SDS011;28729;49.838;8.650;2024-03-22T09:22:12;10.30;;;5.70;;
43118;SDS011;28729;49.838;8.650;2024-03-22T09:26:21;10.00;;;5.20;;
43118;SDS011;28729;49.838;8.650;2024-03-22T09:30:25;7.75;;;4.50;;
43118;SDS011;28729;49.838;8.650;2024-03-22T09:34:27;9.55;;;5.28;;
43118;SDS011;28729;49.838;8.650;2024-03-22T09:38:29;9.07;;;5.47;;
43118;SDS011;28729;49.838;8.650;2024-03-22T09:42:35;9.13;;;4.60;;
43118;SDS011;28729;49.838;8.650;2024-03-22T09:46:47;13.38;;;5.15;;
43118;SDS011;28729;49.838;8.650;2024-03-22T09:50:51;12.48;;;4.90;;
43118;SDS011;28729;49.838;8.650;2024-03-22T09:58:55;10.80;;;5.03;;
43118;SDS011;28729;49.838;8.650;2024-03-22T10:02:59;15.88;;;6.22;;
43118;SDS011;28729;49.838;8.650;2024-03-22T10:07:02;10.93;;;6.63;;
43118;SDS011;28729;49.838;8.650;2024-03-22T10:11:05;9.70;;;6.20;;
43118;SDS011;28729;49.838;8.650;2024-03-22T10:15:06;13.85;;;7.82;;
43118;SDS011;28729;49.838;8.650;2024-03-22T10:19:13;17.70;;;7.32;;
43118;SDS011;28729;49.838;8.650;2024-03-22T10:23:20;10.90;;;7.18;;
43118;SDS011;28729;49.838;8.650;2024-03-22T10:27:29;12.40;;;7.22;;
43118;SDS011;28729;49.838;8.650;2024-03-22T10:31:34;14.25;;;7.10;;
43118;SDS011;28729;49.838;8.650;2024-03-22T10:35:41;12.73;;;7.40;;
43118;SDS011;28729;49.838;8.650;2024-03-22T10:39:47;15.60;;;7.55;;
43118;SDS011;28729;49.838;8.650;2024-03-22T10:43:55;11.75;;;5.97;;
43118;SDS011;28729;49.838;8.650;2024-03-22T10:48:06;13.15;;;7.07;;
43118;SDS011;28729;49.838;8.650;2024-03-22T10:52:19;9.90;;;5.90;;
43118;SDS011;28729;49.838;8.650;2024-03-22T10:56:20;16.10;;;6.43;;
43118;SDS011;28729;49.838;8.650;2024-03-22T11:00:32;12.00;;;6.35;;
43118;SDS011;28729;49.838;8.650;2024-03-22T11:04:35;9.55;;;6.18;;
43118;SDS011;28729;49.838;8.650;2024-03-22T11:08:39;12.55;;;7.10;;
43118;SDS011;28729;49.838;8.650;2024-03-22T11:12:50;12.13;;;5.95;;
43118;SDS011;28729;49.838;8.650;2024-03-22T11:16:57;10.05;;;5.28;;
43118;SDS011;28729;49.838;8.650;2024-03-22T11:20:59;8.52;;;5.25;;
43118;SDS011;28729;49.838;8.650;2024-03-22T11:25:04;13.38;;;5.85;;
43118;SDS011;28729;49.838;8.650;2024-03-22T11:29:11;11.20;;;6.47;;
43118;SDS011;28729;49.838;8.650;2024-03-22T11:33:17;9.13;;;6.00;;
43118;SDS011;28729;49.838;8.650;2024-03-22T11:37:19;8.60;;;5.93;;
43118;SDS011;28729;49.838;8.650;2024-03-22T11:41:27;9.68;;;5.45;;
43118;SDS011;28729;49.838;8.650;2024-03-22T11:45:31;10.57;;;4.90;;
43118;SDS011;28729;49.838;8.650;2024-03-22T12:12:59;8.88;;;5.22;;
43118;SDS011;28729;49.838;8.650;2024-03-22T12:17:03;11.50;;;5.22;;
43118;SDS011;28729;49.838;8.650;2024-03-22T12:21:07;10.93;;;6.05;;
43118;SDS011;28729;49.838;8.650;2024-03-22T12:29:12;10.98;;;6.43;;
43118;SDS011;28729;49.838;8.650;2024-03-22T12:33:18;9.80;;;6.18;;
43118;SDS011;28729;49.838;8.650;2024-03-22T12:37:22;13.20;;;7.30;;
43118;SDS011;28729;49.838;8.650;2024-03-22T12:41:28;17.67;;;7.15;;
43118;SDS011;28729;49.838;8.650;2024-03-22T12:45:32;11.90;;;7.05;;
43118;SDS011;28729;49.838;8.650;2024-03-22T12:49:38;12.60;;;7.10;;
43118;SDS011;28729;49.838;8.650;2024-03-22T12:53:39;10.88;;;7.00;;
43118;SDS011;28729;49.838;8.650;2024-03-22T12:57:47;12.90;;;7.72;;
43118;SDS011;28729;49.838;8.650;2024-03-22T13:01:48;13.23;;;7.90;;
43118;SDS011;28729;49.838;8.650;2024-03-22T13:05:52;12.63;;;7.60;;
43118;SDS011;28729;49.838;8.650;2024-03-22T13:09:59;13.63;;;8.77;;
43118;SDS011;28729;49.838;8.650;2024-03-22T13:14:07;12.45;;;7.95;;
43118;SDS011;28729;49.838;8.650;2024-03-22T13:18:13;12.23;;;8.15;;
43118;SDS011;28729;49.838;8.650;2024-03-22T13:22:24;18.35;;;9.20;;
43118;SDS011;28729;49.838;8.650;2024-03-22T13:26:30;14.93;;;8.07;;
43118;SDS011;28729;49.838;8.650;2024-03-22T13:30:32;15.60;;;9.73;;
43118;SDS011;28729;49.838;8.650;2024-03-22T13:34:34;17.15;;;8.50;;
43118;SDS011;28729;49.838;8.650;2024-03-22T13:38:42;14.65;;;10.10;;
43118;SDS011;28729;49.838;8.650;2024-03-22T13:42:48;16.45;;;9.75;;
43118;SDS011;28729;49.838;8.650;2024-03-22T13:46:59;16.67;;;10.35;;
43118;SDS011;28729;49.838;8.650;2024-03-22T13:51:02;18.40;;;10.65;;
43118;SDS011;28729;49.838;8.650;2024-03-22T13:55:07;19.38;;;10.52;;
43118;SDS011;28729;49.838;8.650;2024-03-22T13:59:09;17.05;;;10.18;;
43118;SDS011;28729;49.838;8.650;2024-03-22T14:03:13;15.85;;;9.85;;
43118;SDS011;28729;49.838;8.650;2024-03-22T14:07:19;19.23;;;11.38;;
43118;SDS011;28729;49.838;8.650;2024-03-22T14:11:23;17.35;;;11.43;;
43118;SDS011;28729;49.838;8.650;2024-03-22T14:15:30;17.88;;;10.00;;
43118;SDS011;28729;49.838;8.650;2024-03-22T14:19:37;19.48;;;11.48;;
43118;SDS011;28729;49.838;8.650;2024-03-22T14:23:41;16.48;;;9.70;;
43118;SDS011;28729;49.838;8.650;2024-03-22T14:27:42;16.95;;;9.98;;
43118;SDS011;28729;49.838;8.650;2024-03-22T14:31:53;17.40;;;10.82;;
43118;SDS011;28729;49.838;8.650;2024-03-22T14:35:57;19.80;;;11.35;;
43118;SDS011;28729;49.838;8.650;2024-03-22T14:39:59;24.23;;;10.63;;
43118;SDS011;28729;49.838;8.650;2024-03-22T14:44:12;18.52;;;10.13;;
43118;SDS011;28729;49.838;8.650;2024-03-22T14:48:16;16.73;;;9.50;;
43118;SDS011;28729;49.838;8.650;2024-03-22T14:52:23;16.35;;;9.73;;
43118;SDS011;28729;49.838;8.650;2024-03-22T14:56:27;15.07;;;8.93;;
43118;SDS011;28729;49.838;8.650;2024-03-22T15:05:54;17.98;;;8.75;;
43118;SDS011;28729;49.838;8.650;2024-03-22T15:09:57;12.13;;;7.68;;
43118;SDS011;28729;49.838;8.650;2024-03-22T15:23:37;16.45;;;9.52;;
43118;SDS011;28729;49.838;8.650;2024-03-22T15:27:40;16.98;;;8.73;;
43118;SDS011;28729;49.838;8.650;2024-03-22T15:31:42;17.38;;;10.25;;
43118;SDS011;28729;49.838;8.650;2024-03-22T15:35:43;15.20;;;9.77;;
43118;SDS011;28729;49.838;8.650;2024-03-22T15:39:50;15.43;;;8.52;;
43118;SDS011;28729;49.838;8.650;2024-03-22T15:43:51;22.45;;;8.68;;
43118;SDS011;28729;49.838;8.650;2024-03-22T15:47:53;16.27;;;9.57;;
43118;SDS011;28729;49.838;8.650;2024-03-22T15:51:57;15.73;;;8.63;;
43118;SDS011;28729;49.838;8.650;2024-03-22T15:55:58;15.15;;;8.38;;
43118;SDS011;28729;49.838;8.650;2024-03-22T15:59:59;14.23;;;8.73;;
43118;SDS011;28729;49.838;8.650;2024-03-22T16:04:04;16.02;;;8.73;;
43118;SDS011;28729;49.838;8.650;2024-03-22T16:08:06;15.05;;;8.00;;
43118;SDS011;28729;49.838;8.650;2024-03-22T16:12:07;13.95;;;7.90;;
43118;SDS011;28729;49.838;8.650;2024-03-22T16:16:09;16.63;;;9.65;;
43118;SDS011;28729;49.838;8.650;2024-03-22T16:20:10;13.98;;;8.43;;
43118;SDS011;28729;49.838;8.650;2024-03-22T16:24:12;16.63;;;9.20;;
43118;SDS011;28729;49.838;8.650;2024-03-22T16:28:13;17.35;;;10.45;;
43118;SDS011;28729;49.838;8.650;2024-03-22T16:32:15;17.63;;;10.17;;
43118;SDS011;28729;49.838;8.650;2024-03-22T16:36:16;20.15;;;11.30;;
43118;SDS011;28729;49.838;8.650;2024-03-22T17:34:12;19.17;;;8.98;;
43118;SDS011;28729;49.838;8.650;2024-03-22T17:38:28;16.33;;;8.95;;
43118;SDS011;28729;49.838;8.650;2024-03-22T17:53:37;19.05;;;10.73;;
43118;SDS011;28729;49.838;8.650;2024-03-22T17:57:45;15.77;;;10.02;;
43118;SDS011;28729;49.838;8.650;2024-03-22T18:21:55;24.35;;;12.90;;
43118;SDS011;28729;49.838;8.650;2024-03-22T18:25:59;24.65;;;13.43;;
43118;SDS011;28729;49.838;8.650;2024-03-22T18:30:02;17.25;;;9.88;;
43118;SDS011;28729;49.838;8.650;2024-03-22T18:34:05;19.33;;;9.00;;
43118;SDS011;28729;49.838;8.650;2024-03-22T18:38:09;18.70;;;8.73;;
43118;SDS011;28729;49.838;8.650;2024-03-22T18:42:11;14.80;;;8.82;;
43118;SDS011;28729;49.838;8.650;2024-03-22T18:46:15;20.15;;;11.60;;
43118;SDS011;28729;49.838;8.650;2024-03-22T18:50:19;20.05;;;9.95;;
43118;SDS011;28729;49.838;8.650;2024-03-22T18:54:31;19.02;;;9.85;;
43118;SDS011;28729;49.838;8.650;2024-03-22T18:58:35;17.80;;;9.73;;
43118;SDS011;28729;49.838;8.650;2024-03-22T19:02:50;17.48;;;9.57;;
43118;SDS011;28729;49.838;8.650;2024-03-22T19:06:54;17.77;;;9.77;;
43118;SDS011;28729;49.838;8.650;2024-03-22T19:10:56;18.55;;;10.07;;
43118;SDS011;28729;49.838;8.650;2024-03-22T19:14:58;19.10;;;10.67;;
43118;SDS011;28729;49.838;8.650;2024-03-22T19:18:59;16.13;;;10.48;;
43118;SDS011;28729;49.838;8.650;2024-03-22T19:23:01;16.88;;;10.18;;
43118;SDS011;28729;49.838;8.650;2024-03-22T19:27:11;17.30;;;9.98;;
43118;SDS011;28729;49.838;8.650;2024-03-22T19:31:21;20.33;;;11.17;;
43118;SDS011;28729;49.838;8.650;2024-03-22T19:35:25;16.85;;;9.93;;
43118;SDS011;28729;49.838;8.650;2024-03-22T19:39:27;18.85;;;11.02;;
43118;SDS011;28729;49.838;8.650;2024-03-22T19:43:31;20.05;;;11.13;;
43118;SDS011;28729;49.838;8.650;2024-03-22T19:47:35;20.70;;;11.73;;
43118;SDS011;28729;49.838;8.650;2024-03-22T19:51:39;23.77;;;11.82;;
43118;SDS011;28729;49.838;8.650;2024-03-22T19:55:41;20.85;;;12.27;;
43118;SDS011;28729;49.838;8.650;2024-03-22T19:59:47;22.90;;;11.02;;
43118;SDS011;28729;49.838;8.650;2024-03-22T20:03:55;22.95;;;12.13;;
43118;SDS011;28729;49.838;8.650;2024-03-22T20:08:09;20.05;;;12.88;;
43118;SDS011;28729;49.838;8.650;2024-03-22T20:12:13;23.17;;;11.95;;
43118;SDS011;28729;49.838;8.650;2024-03-22T20:16:15;17.85;;;11.05;;
43118;SDS011;28729;49.838;8.650;2024-03-22T20:20:19;17.58;;;10.70;;
43118;SDS011;28729;49.838;8.650;2024-03-22T20:24:29;18.63;;;11.67;;
43118;SDS011;28729;49.838;8.650;2024-03-22T20:28:30;19.08;;;11.15;;
43118;SDS011;28729;49.838;8.650;2024-03-22T20:32:32;20.23;;;10.57;;
43118;SDS011;28729;49.838;8.650;2024-03-22T20:36:37;19.73;;;10.13;;
